sensor_id;sensor_type;location;lat;lon;timestamp;pressure;altitude;pressure_sealevel;temperature
15333;BMP180;7766;51.534;6.722;2022-12-07T15:36:28;100862.28;;;5.74
15333;BMP180;7766;51.534;6.722;2022-12-07T15:37:29;100863.75;;;5.77
15333;BMP180;7766;51.534;6.722;2022-12-07T15:38:30;100868.53;;;5.81
15333;BMP180;7766;51.534;6.722;2022-12-07T15:39:31;100865.63;;;5.84
15333;BMP180;7766;51.534;6.722;2022-12-07T15:40:32;100861.75;;;5.88
15333;BMP180;7766;51.534;6.722;2022-12-07T15:41:34;100867.34;;;5.93
15333;BMP180;7766;51.534;6.722;2022-12-07T15:42:36;100863.47;;;5.97
15333;BMP180;7766;51.534;6.722;2022-12-07T15:43:37;100861.25;;;6.02
15333;BMP180;7766;51.534;6.722;2022-12-07T15:44:56;100865.84;;;6.07
15333;BMP180;7766;51.534;6.722;2022-12-07T15:46:06;100857.28;;;6.15
15333;BMP180;7766;51.534;6.722;2022-12-07T15:47:07;100851.78;;;6.18
15333;BMP180;7766;51.534;6.722;2022-12-07T15:48:08;100856.16;;;6.17
15333;BMP180;7766;51.534;6.722;2022-12-07T15:49:14;100854.75;;;6.22
15333;BMP180;7766;51.534;6.722;2022-12-07T15:50:16;100853.63;;;6.25
15333;BMP180;7766;51.534;6.722;2022-12-07T15:51:17;100852.34;;;6.29
15333;BMP180;7766;51.534;6.722;2022-12-07T15:52:18;100854.81;;;6.30
15333;BMP180;7766;51.534;6.722;2022-12-07T15:53:20;100854.34;;;6.34
15333;BMP180;7766;51.534;6.722;2022-12-07T15:54:25;100853.63;;;6.25
15333;BMP180;7766;51.534;6.722;2022-12-07T15:55:26;100848.75;;;6.30
15333;BMP180;7766;51.534;6.722;2022-12-07T15:56:27;100854.34;;;6.34
15333;BMP180;7766;51.534;6.722;2022-12-07T15:57:29;100855.69;;;6.38
15333;BMP180;7766;51.534;6.722;2022-12-07T15:58:31;100854.56;;;6.41
15333;BMP180;7766;51.534;6.722;2022-12-07T15:59:32;100848.22;;;6.43
15333;BMP180;7766;51.534;6.722;2022-12-07T16:00:33;100844.66;;;6.44
15333;BMP180;7766;51.534;6.722;2022-12-07T16:01:34;100844.31;;;6.47
15333;BMP180;7766;51.534;6.722;2022-12-07T16:02:37;100843.53;;;6.47
15333;BMP180;7766;51.534;6.722;2022-12-07T16:03:38;100844.00;;;6.50
15333;BMP180;7766;51.534;6.722;2022-12-07T16:04:38;100846.94;;;6.47
15333;BMP180;7766;51.534;6.722;2022-12-07T16:05:40;100836.88;;;6.52
15333;BMP180;7766;51.534;6.722;2022-12-07T16:06:41;100841.63;;;6.56
15333;BMP180;7766;51.534;6.722;2022-12-07T16:07:42;100837.88;;;6.59
15333;BMP180;7766;51.534;6.722;2022-12-07T16:08:45;100841.75;;;6.55
15333;BMP180;7766;51.534;6.722;2022-12-07T16:09:46;100831.84;;;6.58
15333;BMP180;7766;51.534;6.722;2022-12-07T16:10:47;100831.69;;;6.60
15333;BMP180;7766;51.534;6.722;2022-12-07T16:11:48;100836.75;;;6.61
15333;BMP180;7766;51.534;6.722;2022-12-07T16:12:50;100832.38;;;6.62
15333;BMP180;7766;51.534;6.722;2022-12-07T16:13:52;100826.19;;;6.63
15333;BMP180;7766;51.534;6.722;2022-12-07T16:14:53;100828.44;;;6.65
15333;BMP180;7766;51.534;6.722;2022-12-07T16:15:54;100828.31;;;6.67
15333;BMP180;7766;51.534;6.722;2022-12-07T16:16:55;100828.16;;;6.68
15333;BMP180;7766;51.534;6.722;2022-12-07T16:17:56;100821.97;;;6.69
15333;BMP180;7766;51.534;6.722;2022-12-07T16:18:58;100824.66;;;6.60
15333;BMP180;7766;51.534;6.722;2022-12-07T16:19:59;100827.97;;;6.62
15333;BMP180;7766;51.534;6.722;2022-12-07T16:21:00;100822.44;;;6.65
15333;BMP180;7766;51.534;6.722;2022-12-07T16:22:01;100826.00;;;6.64
15333;BMP180;7766;51.534;6.722;2022-12-07T16:23:03;100825.72;;;6.67
15333;BMP180;7766;51.534;6.722;2022-12-07T16:24:04;100825.72;;;6.67
15333;BMP180;7766;51.534;6.722;2022-12-07T16:25:06;100822.63;;;6.71
15333;BMP180;7766;51.534;6.722;2022-12-07T16:26:18;100819.34;;;6.69
15333;BMP180;7766;51.534;6.722;2022-12-07T16:27:19;100825.09;;;6.73
15333;BMP180;7766;51.534;6.722;2022-12-07T16:28:20;100822.97;;;6.76
15333;BMP180;7766;51.534;6.722;2022-12-07T16:29:22;100819.56;;;6.76
15333;BMP180;7766;51.534;6.722;2022-12-07T16:30:23;100822.31;;;6.74
15333;BMP180;7766;51.534;6.722;2022-12-07T16:31:26;100822.66;;;6.79
15333;BMP180;7766;51.534;6.722;2022-12-07T16:32:27;100825.28;;;6.79
15333;BMP180;7766;51.534;6.722;2022-12-07T16:33:28;100823.34;;;6.81
15333;BMP180;7766;51.534;6.722;2022-12-07T16:34:29;100825.28;;;6.79
15333;BMP180;7766;51.534;6.722;2022-12-07T16:35:30;100826.41;;;6.77
15333;BMP180;7766;51.534;6.722;2022-12-07T16:36:31;100825.28;;;6.79
15333;BMP180;7766;51.534;6.722;2022-12-07T16:37:32;100822.19;;;6.76
15333;BMP180;7766;51.534;6.722;2022-12-07T16:38:33;100823.34;;;6.81
15333;BMP180;7766;51.534;6.722;2022-12-07T16:39:34;100828.09;;;6.85
15333;BMP180;7766;51.534;6.722;2022-12-07T16:40:36;100820.66;;;6.73
15333;BMP180;7766;51.534;6.722;2022-12-07T16:41:37;100822.63;;;6.71
15333;BMP180;7766;51.534;6.722;2022-12-07T16:42:38;100822.19;;;6.76
15333;BMP180;7766;51.534;6.722;2022-12-07T16:43:39;100824.88;;;6.66
15333;BMP180;7766;51.534;6.722;2022-12-07T16:44:40;100828.44;;;6.65
15333;BMP180;7766;51.534;6.722;2022-12-07T16:45:42;100827.19;;;6.69
15333;BMP180;7766;51.534;6.722;2022-12-07T16:46:43;100819.53;;;6.68
15333;BMP180;7766;51.534;6.722;2022-12-07T16:47:44;100825.34;;;6.62
15333;BMP180;7766;51.534;6.722;2022-12-07T16:48:45;100819.91;;;6.56
15333;BMP180;7766;51.534;6.722;2022-12-07T16:49:45;100821.63;;;6.65
15333;BMP180;7766;51.534;6.722;2022-12-07T16:50:46;100814.31;;;6.68
15333;BMP180;7766;51.534;6.722;2022-12-07T16:51:50;100813.91;;;6.63
15333;BMP180;7766;51.534;6.722;2022-12-07T16:52:50;100813.44;;;6.60
15333;BMP180;7766;51.534;6.722;2022-12-07T16:53:53;100807.47;;;6.50
15333;BMP180;7766;51.534;6.722;2022-12-07T16:54:54;100808.81;;;6.54
15333;BMP180;7766;51.534;6.722;2022-12-07T16:55:55;100809.03;;;6.35
15333;BMP180;7766;51.534;6.722;2022-12-07T16:56:56;100806.81;;;6.48
15333;BMP180;7766;51.534;6.722;2022-12-07T16:57:56;100808.81;;;6.54
15333;BMP180;7766;51.534;6.722;2022-12-07T16:59:01;100811.94;;;6.57
15333;BMP180;7766;51.534;6.722;2022-12-07T17:00:02;100804.72;;;6.51
15333;BMP180;7766;51.534;6.722;2022-12-07T17:01:21;100808.22;;;6.60
15333;BMP180;7766;51.534;6.722;2022-12-07T17:02:23;100804.59;;;6.61
15333;BMP180;7766;51.534;6.722;2022-12-07T17:03:24;100803.03;;;6.67
15333;BMP180;7766;51.534;6.722;2022-12-07T17:04:25;100800.25;;;6.69
15333;BMP180;7766;51.534;6.722;2022-12-07T17:05:27;100799.13;;;6.71
15333;BMP180;7766;51.534;6.722;2022-12-07T17:06:29;100800.16;;;6.78
15333;BMP180;7766;51.534;6.722;2022-12-07T17:07:31;100802.47;;;6.81
15333;BMP180;7766;51.534;6.722;2022-12-07T17:08:32;100802.81;;;6.86
15333;BMP180;7766;51.534;6.722;2022-12-07T17:09:33;100797.84;;;6.75
15333;BMP180;7766;51.534;6.722;2022-12-07T17:10:38;100794.22;;;6.68
15333;BMP180;7766;51.534;6.722;2022-12-07T17:11:39;100795.69;;;6.71
15333;BMP180;7766;51.534;6.722;2022-12-07T17:12:43;100797.78;;;6.60
15333;BMP180;7766;51.534;6.722;2022-12-07T17:13:45;100788.94;;;6.61
15333;BMP180;7766;51.534;6.722;2022-12-07T17:15:05;100796.03;;;6.68
15333;BMP180;7766;51.534;6.722;2022-12-07T17:16:18;100794.69;;;6.64
15333;BMP180;7766;51.534;6.722;2022-12-07T17:17:19;100800.00;;;6.55
15333;BMP180;7766;51.534;6.722;2022-12-07T17:18:20;100799.69;;;6.58
15333;BMP180;7766;51.534;6.722;2022-12-07T17:19:21;100792.72;;;6.66
15333;BMP180;7766;51.534;6.722;2022-12-07T17:20:23;100798.78;;;6.66
15333;BMP180;7766;51.534;6.722;2022-12-07T17:21:25;100802.56;;;6.72
15333;BMP180;7766;51.534;6.722;2022-12-07T17:22:26;100799.59;;;6.67
15333;BMP180;7766;51.534;6.722;2022-12-07T17:23:27;100799.09;;;6.64
15333;BMP180;7766;51.534;6.722;2022-12-07T17:24:29;100793.69;;;6.57
15333;BMP180;7766;51.534;6.722;2022-12-07T17:25:33;100793.03;;;6.63
15333;BMP180;7766;51.534;6.722;2022-12-07T17:26:34;100789.56;;;6.55
15333;BMP180;7766;51.534;6.722;2022-12-07T17:27:35;100788.84;;;6.45
15333;BMP180;7766;51.534;6.722;2022-12-07T17:28:37;100791.22;;;6.56
15333;BMP180;7766;51.534;6.722;2022-12-07T17:29:38;100787.03;;;6.63
15333;BMP180;7766;51.534;6.722;2022-12-07T17:30:39;100785.84;;;6.57
15333;BMP180;7766;51.534;6.722;2022-12-07T17:31:41;100781.41;;;6.58
15333;BMP180;7766;51.534;6.722;2022-12-07T17:32:42;100778.06;;;6.65
15333;BMP180;7766;51.534;6.722;2022-12-07T17:33:43;100785.59;;;6.68
15333;BMP180;7766;51.534;6.722;2022-12-07T17:34:44;100784.97;;;6.49
15333;BMP180;7766;51.534;6.722;2022-12-07T17:35:45;100774.72;;;6.55
15333;BMP180;7766;51.534;6.722;2022-12-07T17:36:46;100777.84;;;6.59
15333;BMP180;7766;51.534;6.722;2022-12-07T17:37:47;100779.03;;;6.64
15333;BMP180;7766;51.534;6.722;2022-12-07T17:38:48;100780.50;;;6.66
15333;BMP180;7766;51.534;6.722;2022-12-07T17:39:50;100777.41;;;6.71
15333;BMP180;7766;51.534;6.722;2022-12-07T17:40:52;100778.25;;;6.71
15333;BMP180;7766;51.534;6.722;2022-12-07T17:41:52;100779.19;;;6.63
15333;BMP180;7766;51.534;6.722;2022-12-07T17:43:12;100776.75;;;6.69
15333;BMP180;7766;51.534;6.722;2022-12-07T17:44:16;100771.66;;;6.60
15333;BMP180;7766;51.534;6.722;2022-12-07T17:45:17;100772.97;;;6.64
15333;BMP180;7766;51.534;6.722;2022-12-07T17:46:18;100773.50;;;6.67
15333;BMP180;7766;51.534;6.722;2022-12-07T17:47:19;100769.75;;;6.69
15333;BMP180;7766;51.534;6.722;2022-12-07T17:48:21;100772.06;;;6.72
15333;BMP180;7766;51.534;6.722;2022-12-07T17:49:23;100770.72;;;6.68
15333;BMP180;7766;51.534;6.722;2022-12-07T17:50:24;100764.50;;;6.62
15333;BMP180;7766;51.534;6.722;2022-12-07T17:51:44;100770.38;;;6.64
15333;BMP180;7766;51.534;6.722;2022-12-07T17:53:03;100771.06;;;6.73
15333;BMP180;7766;51.534;6.722;2022-12-07T17:54:11;100766.22;;;6.78
15333;BMP180;7766;51.534;6.722;2022-12-07T17:55:12;100767.69;;;6.81
15333;BMP180;7766;51.534;6.722;2022-12-07T17:56:13;100761.34;;;6.83
15333;BMP180;7766;51.534;6.722;2022-12-07T17:57:14;100763.94;;;6.83
15333;BMP180;7766;51.534;6.722;2022-12-07T17:58:14;100759.53;;;6.83
15333;BMP180;7766;51.534;6.722;2022-12-07T17:59:16;100761.00;;;6.78
15333;BMP180;7766;51.534;6.722;2022-12-07T18:00:17;100764.28;;;6.55
15333;BMP180;7766;51.534;6.722;2022-12-07T18:01:19;100757.94;;;6.58
15333;BMP180;7766;51.534;6.722;2022-12-07T18:02:20;100766.31;;;6.69
15333;BMP180;7766;51.534;6.722;2022-12-07T18:03:21;100758.44;;;6.61
15333;BMP180;7766;51.534;6.722;2022-12-07T18:04:22;100764.69;;;6.68
15333;BMP180;7766;51.534;6.722;2022-12-07T18:05:23;100760.59;;;6.65
15333;BMP180;7766;51.534;6.722;2022-12-07T18:06:24;100757.97;;;6.65
15333;BMP180;7766;51.534;6.722;2022-12-07T18:07:25;100757.34;;;6.71
15333;BMP180;7766;51.534;6.722;2022-12-07T18:08:26;100747.75;;;6.72
15333;BMP180;7766;51.534;6.722;2022-12-07T18:09:27;100750.03;;;6.75
15333;BMP180;7766;51.534;6.722;2022-12-07T18:10:28;100756.69;;;6.69
15333;BMP180;7766;51.534;6.722;2022-12-07T18:11:30;100754.25;;;6.68
15333;BMP180;7766;51.534;6.722;2022-12-07T18:12:32;100748.94;;;6.52
15333;BMP180;7766;51.534;6.722;2022-12-07T18:13:33;100749.56;;;6.47
15333;BMP180;7766;51.534;6.722;2022-12-07T18:14:37;100752.94;;;6.39
15333;BMP180;7766;51.534;6.722;2022-12-07T18:15:39;100752.97;;;6.47
15333;BMP180;7766;51.534;6.722;2022-12-07T18:16:40;100743.31;;;6.40
15333;BMP180;7766;51.534;6.722;2022-12-07T18:17:41;100743.44;;;6.31
15333;BMP180;7766;51.534;6.722;2022-12-07T18:18:43;100742.47;;;6.32
15333;BMP180;7766;51.534;6.722;2022-12-07T18:19:43;100738.22;;;6.31
15333;BMP180;7766;51.534;6.722;2022-12-07T18:20:44;100743.44;;;6.31
15333;BMP180;7766;51.534;6.722;2022-12-07T18:21:46;100748.97;;;6.28
15333;BMP180;7766;51.534;6.722;2022-12-07T18:22:47;100743.78;;;6.35
15333;BMP180;7766;51.534;6.722;2022-12-07T18:23:49;100743.19;;;6.41
15333;BMP180;7766;51.534;6.722;2022-12-07T18:24:51;100740.28;;;6.44
15333;BMP180;7766;51.534;6.722;2022-12-07T18:25:52;100737.69;;;6.52
15333;BMP180;7766;51.534;6.722;2022-12-07T18:26:53;100743.19;;;6.41
15333;BMP180;7766;51.534;6.722;2022-12-07T18:27:54;100739.53;;;6.34
15333;BMP180;7766;51.534;6.722;2022-12-07T18:28:57;100734.63;;;6.32
15333;BMP180;7766;51.534;6.722;2022-12-07T18:29:58;100738.59;;;6.35
15333;BMP180;7766;51.534;6.722;2022-12-07T18:30:59;100738.44;;;6.45
15333;BMP180;7766;51.534;6.722;2022-12-07T18:32:00;100745.75;;;6.34
15333;BMP180;7766;51.534;6.722;2022-12-07T18:33:01;100739.59;;;6.42
15333;BMP180;7766;51.534;6.722;2022-12-07T18:34:07;100743.63;;;6.37
15333;BMP180;7766;51.534;6.722;2022-12-07T18:35:11;100740.47;;;6.26
15333;BMP180;7766;51.534;6.722;2022-12-07T18:36:14;100741.09;;;6.20
15333;BMP180;7766;51.534;6.722;2022-12-07T18:37:16;100740.47;;;6.26
15333;BMP180;7766;51.534;6.722;2022-12-07T18:38:17;100741.31;;;6.34
15333;BMP180;7766;51.534;6.722;2022-12-07T18:39:19;100738.59;;;6.35
15333;BMP180;7766;51.534;6.722;2022-12-07T18:40:20;100746.66;;;6.25
15333;BMP180;7766;51.534;6.722;2022-12-07T18:41:21;100744.06;;;6.25
15333;BMP180;7766;51.534;6.722;2022-12-07T18:42:22;100741.75;;;6.22
15333;BMP180;7766;51.534;6.722;2022-12-07T18:43:23;100738.84;;;6.25
15333;BMP180;7766;51.534;6.722;2022-12-07T18:44:27;100744.75;;;6.34
15333;BMP180;7766;51.534;6.722;2022-12-07T18:45:28;100744.47;;;6.37
15333;BMP180;7766;51.534;6.722;2022-12-07T18:46:29;100737.09;;;6.33
15333;BMP180;7766;51.534;6.722;2022-12-07T18:47:30;100738.72;;;6.34
15333;BMP180;7766;51.534;6.722;2022-12-07T18:48:31;100735.97;;;6.35
15333;BMP180;7766;51.534;6.722;2022-12-07T18:49:32;100739.59;;;6.42
15333;BMP180;7766;51.534;6.722;2022-12-07T18:50:33;100736.53;;;6.22
15333;BMP180;7766;51.534;6.722;2022-12-07T18:51:35;100731.66;;;6.27
15333;BMP180;7766;51.534;6.722;2022-12-07T18:52:36;100734.84;;;6.38
15333;BMP180;7766;51.534;6.722;2022-12-07T18:53:37;100734.84;;;6.38
15333;BMP180;7766;51.534;6.722;2022-12-07T18:54:38;100731.44;;;6.45
15333;BMP180;7766;51.534;6.722;2022-12-07T18:55:39;100726.75;;;6.49
15333;BMP180;7766;51.534;6.722;2022-12-07T18:56:40;100726.91;;;6.55
15333;BMP180;7766;51.534;6.722;2022-12-07T18:57:41;100724.31;;;6.55
15333;BMP180;7766;51.534;6.722;2022-12-07T18:58:42;100731.69;;;6.59
15333;BMP180;7766;51.534;6.722;2022-12-07T19:00:04;100724.81;;;6.58
15333;BMP180;7766;51.534;6.722;2022-12-07T19:01:05;100725.97;;;6.56
15333;BMP180;7766;51.534;6.722;2022-12-07T19:02:06;100722.53;;;6.55
15333;BMP180;7766;51.534;6.722;2022-12-07T19:03:07;100731.84;;;6.58
15333;BMP180;7766;51.534;6.722;2022-12-07T19:04:08;100723.88;;;6.34
15333;BMP180;7766;51.534;6.722;2022-12-07T19:05:09;100724.19;;;6.32
15333;BMP180;7766;51.534;6.722;2022-12-07T19:06:10;100720.00;;;6.38
15333;BMP180;7766;51.534;6.722;2022-12-07T19:07:10;100727.88;;;6.46
15333;BMP180;7766;51.534;6.722;2022-12-07T19:08:11;100724.78;;;6.50
15333;BMP180;7766;51.534;6.722;2022-12-07T19:09:13;100726.22;;;6.45
15333;BMP180;7766;51.534;6.722;2022-12-07T19:10:14;100724.53;;;6.36
15333;BMP180;7766;51.534;6.722;2022-12-07T19:11:19;100731.66;;;6.27
15333;BMP180;7766;51.534;6.722;2022-12-07T19:12:40;100724.72;;;6.10
15333;BMP180;7766;51.534;6.722;2022-12-07T19:13:41;100723.28;;;6.16
15333;BMP180;7766;51.534;6.722;2022-12-07T19:14:42;100725.44;;;6.20
15333;BMP180;7766;51.534;6.722;2022-12-07T19:15:43;100721.53;;;6.24
15333;BMP180;7766;51.534;6.722;2022-12-07T19:16:45;100727.09;;;6.29
15333;BMP180;7766;51.534;6.722;2022-12-07T19:17:46;100731.50;;;6.20
15333;BMP180;7766;51.534;6.722;2022-12-07T19:18:47;100728.72;;;6.22
15333;BMP180;7766;51.534;6.722;2022-12-07T19:19:48;100729.72;;;6.29
15333;BMP180;7766;51.534;6.722;2022-12-07T19:20:49;100730.75;;;6.35
15333;BMP180;7766;51.534;6.722;2022-12-07T19:21:50;100726.06;;;6.39
15333;BMP180;7766;51.534;6.722;2022-12-07T19:22:51;100729.84;;;6.44
15333;BMP180;7766;51.534;6.722;2022-12-07T19:23:53;100725.09;;;6.48
15333;BMP180;7766;51.534;6.722;2022-12-07T19:24:55;100726.09;;;6.47
15333;BMP180;7766;51.534;6.722;2022-12-07T19:25:56;100736.88;;;6.51
15333;BMP180;7766;51.534;6.722;2022-12-07T19:26:57;100726.44;;;6.51
15333;BMP180;7766;51.534;6.722;2022-12-07T19:27:58;100729.69;;;6.53
15333;BMP180;7766;51.534;6.722;2022-12-07T19:28:59;100733.78;;;6.56
15333;BMP180;7766;51.534;6.722;2022-12-07T19:30:00;100724.47;;;6.53
15333;BMP180;7766;51.534;6.722;2022-12-07T19:31:05;100729.22;;;6.58
15333;BMP180;7766;51.534;6.722;2022-12-07T19:32:07;100727.59;;;6.57
15333;BMP180;7766;51.534;6.722;2022-12-07T19:33:09;100728.56;;;6.56
15333;BMP180;7766;51.534;6.722;2022-12-07T19:34:11;100721.25;;;6.59
15333;BMP180;7766;51.534;6.722;2022-12-07T19:35:13;100719.47;;;6.60
15333;BMP180;7766;51.534;6.722;2022-12-07T19:36:13;100719.47;;;6.60
15333;BMP180;7766;51.534;6.722;2022-12-07T19:37:14;100720.13;;;6.62
15333;BMP180;7766;51.534;6.722;2022-12-07T19:38:15;100715.88;;;6.61
15333;BMP180;7766;51.534;6.722;2022-12-07T19:39:16;100718.34;;;6.62
15333;BMP180;7766;51.534;6.722;2022-12-07T19:40:17;100714.72;;;6.63
15333;BMP180;7766;51.534;6.722;2022-12-07T19:41:18;100718.44;;;6.53
15333;BMP180;7766;51.534;6.722;2022-12-07T19:42:49;100707.03;;;6.54
15333;BMP180;7766;51.534;6.722;2022-12-07T19:43:50;100705.94;;;6.32
15333;BMP180;7766;51.534;6.722;2022-12-07T19:44:51;100711.09;;;6.24
15333;BMP180;7766;51.534;6.722;2022-12-07T19:45:52;100707.41;;;6.34
15333;BMP180;7766;51.534;6.722;2022-12-07T19:46:54;100707.84;;;6.22
15333;BMP180;7766;51.534;6.722;2022-12-07T19:47:55;100715.25;;;6.34
15333;BMP180;7766;51.534;6.722;2022-12-07T19:48:56;100705.50;;;6.36
15333;BMP180;7766;51.534;6.722;2022-12-07T19:49:57;100712.53;;;6.43
15333;BMP180;7766;51.534;6.722;2022-12-07T19:51:05;100703.75;;;6.44
15333;BMP180;7766;51.534;6.722;2022-12-07T19:52:07;100710.44;;;6.47
15333;BMP180;7766;51.534;6.722;2022-12-07T19:53:08;100702.13;;;6.51
15333;BMP180;7766;51.534;6.722;2022-12-07T19:54:10;100702.28;;;6.49
15333;BMP180;7766;51.534;6.722;2022-12-07T19:55:12;100691.81;;;6.49
15333;BMP180;7766;51.534;6.722;2022-12-07T19:56:14;100699.66;;;6.49
15333;BMP180;7766;51.534;6.722;2022-12-07T19:57:15;100695.13;;;6.51
15333;BMP180;7766;51.534;6.722;2022-12-07T19:58:17;100691.38;;;6.54
15333;BMP180;7766;51.534;6.722;2022-12-07T19:59:20;100700.81;;;6.55
15333;BMP180;7766;51.534;6.722;2022-12-07T20:00:21;100689.56;;;6.47
15333;BMP180;7766;51.534;6.722;2022-12-07T20:01:22;100688.72;;;6.46
15333;BMP180;7766;51.534;6.722;2022-12-07T20:02:23;100689.09;;;6.51
15333;BMP180;7766;51.534;6.722;2022-12-07T20:03:26;100688.78;;;6.54
15333;BMP180;7766;51.534;6.722;2022-12-07T20:04:29;100687.75;;;6.47
15333;BMP180;7766;51.534;6.722;2022-12-07T20:05:33;100685.97;;;6.48
15333;BMP180;7766;51.534;6.722;2022-12-07T20:06:34;100687.59;;;6.49
15333;BMP180;7766;51.534;6.722;2022-12-07T20:07:36;100690.38;;;6.55
15333;BMP180;7766;51.534;6.722;2022-12-07T20:08:39;100687.06;;;6.37
15333;BMP180;7766;51.534;6.722;2022-12-07T20:09:40;100687.25;;;6.44
15333;BMP180;7766;51.534;6.722;2022-12-07T20:10:41;100679.13;;;6.47
15333;BMP180;7766;51.534;6.722;2022-12-07T20:11:42;100681.88;;;6.45
15333;BMP180;7766;51.534;6.722;2022-12-07T20:13:02;100680.41;;;6.43
15333;BMP180;7766;51.534;6.722;2022-12-07T20:14:22;100674.88;;;6.46
15333;BMP180;7766;51.534;6.722;2022-12-07T20:15:23;100670.16;;;6.49
15333;BMP180;7766;51.534;6.722;2022-12-07T20:16:24;100678.63;;;6.51
15333;BMP180;7766;51.534;6.722;2022-12-07T20:17:25;100674.56;;;6.49
15333;BMP180;7766;51.534;6.722;2022-12-07T20:18:26;100678.63;;;6.51
15333;BMP180;7766;51.534;6.722;2022-12-07T20:19:28;100672.78;;;6.49
15333;BMP180;7766;51.534;6.722;2022-12-07T20:20:29;100681.38;;;6.49
15333;BMP180;7766;51.534;6.722;2022-12-07T20:21:30;100677.66;;;6.44
15333;BMP180;7766;51.534;6.722;2022-12-07T20:22:31;100672.44;;;6.44
15333;BMP180;7766;51.534;6.722;2022-12-07T20:23:31;100673.03;;;6.38
15333;BMP180;7766;51.534;6.722;2022-12-07T20:24:33;100678.25;;;6.38
15333;BMP180;7766;51.534;6.722;2022-12-07T20:25:35;100682.16;;;6.34
15333;BMP180;7766;51.534;6.722;2022-12-07T20:26:37;100677.28;;;6.39
15333;BMP180;7766;51.534;6.722;2022-12-07T20:27:38;100677.13;;;6.41
15333;BMP180;7766;51.534;6.722;2022-12-07T20:28:41;100670.78;;;6.43
15333;BMP180;7766;51.534;6.722;2022-12-07T20:29:45;100678.44;;;6.45
15333;BMP180;7766;51.534;6.722;2022-12-07T20:30:50;100678.28;;;6.46
15333;BMP180;7766;51.534;6.722;2022-12-07T20:31:53;100684.47;;;6.45
15333;BMP180;7766;51.534;6.722;2022-12-07T20:32:54;100674.75;;;6.22
15333;BMP180;7766;51.534;6.722;2022-12-07T20:33:57;100672.31;;;6.29
15333;BMP180;7766;51.534;6.722;2022-12-07T20:34:59;100675.41;;;6.24
15333;BMP180;7766;51.534;6.722;2022-12-07T20:36:02;100669.22;;;6.25
15333;BMP180;7766;51.534;6.722;2022-12-07T20:37:03;100667.94;;;6.29
15333;BMP180;7766;51.534;6.722;2022-12-07T20:38:05;100666.28;;;6.20
15333;BMP180;7766;51.534;6.722;2022-12-07T20:39:06;100662.16;;;6.18
15333;BMP180;7766;51.534;6.722;2022-12-07T20:40:08;100659.94;;;6.23
15333;BMP180;7766;51.534;6.722;2022-12-07T20:41:10;100667.91;;;6.21
15333;BMP180;7766;51.534;6.722;2022-12-07T20:42:32;100657.66;;;6.28
15333;BMP180;7766;51.534;6.722;2022-12-07T20:43:38;100660.28;;;6.28
15333;BMP180;7766;51.534;6.722;2022-12-07T20:44:39;100661.56;;;6.32
15333;BMP180;7766;51.534;6.722;2022-12-07T20:45:45;100652.47;;;6.35
15333;BMP180;7766;51.534;6.722;2022-12-07T20:46:46;100660.94;;;6.30
15333;BMP180;7766;51.534;6.722;2022-12-07T20:47:48;100657.69;;;6.35
15333;BMP180;7766;51.534;6.722;2022-12-07T20:48:49;100661.91;;;6.36
15333;BMP180;7766;51.534;6.722;2022-12-07T20:49:50;100650.31;;;6.31
15333;BMP180;7766;51.534;6.722;2022-12-07T20:50:51;100659.66;;;6.34
15333;BMP180;7766;51.534;6.722;2022-12-07T20:51:52;100654.75;;;6.31
15333;BMP180;7766;51.534;6.722;2022-12-07T20:52:54;100657.69;;;6.35
15333;BMP180;7766;51.534;6.722;2022-12-07T20:53:55;100662.91;;;6.35
15333;BMP180;7766;51.534;6.722;2022-12-07T20:54:56;100645.31;;;6.37
15333;BMP180;7766;51.534;6.722;2022-12-07T20:55:57;100658.94;;;6.24
15333;BMP180;7766;51.534;6.722;2022-12-07T20:56:58;100656.63;;;6.21
15333;BMP180;7766;51.534;6.722;2022-12-07T20:57:59;100660.53;;;6.17
15333;BMP180;7766;51.534;6.722;2022-12-07T20:59:03;100657.28;;;6.15
15333;BMP180;7766;51.534;6.722;2022-12-07T21:00:06;100651.34;;;6.05
15333;BMP180;7766;51.534;6.722;2022-12-07T21:01:07;100658.84;;;6.08
15333;BMP180;7766;51.534;6.722;2022-12-07T21:02:12;100650.06;;;6.09
15333;BMP180;7766;51.534;6.722;2022-12-07T21:03:13;100650.75;;;6.19
15333;BMP180;7766;51.534;6.722;2022-12-07T21:04:14;100652.09;;;6.23
15333;BMP180;7766;51.534;6.722;2022-12-07T21:05:16;100650.16;;;6.25
15333;BMP180;7766;51.534;6.722;2022-12-07T21:06:18;100646.53;;;6.26
15333;BMP180;7766;51.534;6.722;2022-12-07T21:07:19;100647.06;;;6.29
15333;BMP180;7766;51.534;6.722;2022-12-07T21:08:20;100639.09;;;6.31
15333;BMP180;7766;51.534;6.722;2022-12-07T21:09:21;100649.22;;;6.34
15333;BMP180;7766;51.534;6.722;2022-12-07T21:10:26;100643.66;;;6.36
15333;BMP180;7766;51.534;6.722;2022-12-07T21:11:28;100644.75;;;6.26
15333;BMP180;7766;51.534;6.722;2022-12-07T21:12:30;100645.09;;;6.31
15333;BMP180;7766;51.534;6.722;2022-12-07T21:13:31;100637.66;;;6.36
15333;BMP180;7766;51.534;6.722;2022-12-07T21:14:32;100641.03;;;6.29
15333;BMP180;7766;51.534;6.722;2022-12-07T21:15:33;100646.63;;;6.34
15333;BMP180;7766;51.534;6.722;2022-12-07T21:16:34;100642.03;;;6.35
15333;BMP180;7766;51.534;6.722;2022-12-07T21:17:35;100645.47;;;6.36
15333;BMP180;7766;51.534;6.722;2022-12-07T21:18:37;100646.88;;;6.23
15333;BMP180;7766;51.534;6.722;2022-12-07T21:19:39;100649.53;;;6.31
15333;BMP180;7766;51.534;6.722;2022-12-07T21:20:40;100644.66;;;6.35
15333;BMP180;7766;51.534;6.722;2022-12-07T21:21:41;100642.84;;;6.28
15333;BMP180;7766;51.534;6.722;2022-12-07T21:22:42;100644.25;;;6.15
15333;BMP180;7766;51.534;6.722;2022-12-07T21:23:43;100642.22;;;6.02
15333;BMP180;7766;51.534;6.722;2022-12-07T21:24:44;100652.00;;;6.07
15333;BMP180;7766;51.534;6.722;2022-12-07T21:25:45;100648.72;;;6.05
15333;BMP180;7766;51.534;6.722;2022-12-07T21:26:46;100642.88;;;6.03
15333;BMP180;7766;51.534;6.722;2022-12-07T21:27:47;100643.81;;;6.02
15333;BMP180;7766;51.534;6.722;2022-12-07T21:28:48;100639.63;;;6.09
15333;BMP180;7766;51.534;6.722;2022-12-07T21:29:50;100639.03;;;6.15
15333;BMP180;7766;51.534;6.722;2022-12-07T21:30:56;100642.63;;;6.22
15333;BMP180;7766;51.534;6.722;2022-12-07T21:31:57;100632.78;;;6.08
15333;BMP180;7766;51.534;6.722;2022-12-07T21:32:58;100637.59;;;5.96
15333;BMP180;7766;51.534;6.722;2022-12-07T21:34:03;100638.59;;;6.02
15333;BMP180;7766;51.534;6.722;2022-12-07T21:35:04;100636.59;;;5.97
15333;BMP180;7766;51.534;6.722;2022-12-07T21:36:06;100635.59;;;5.90
15333;BMP180;7766;51.534;6.722;2022-12-07T21:37:09;100641.03;;;5.96
15333;BMP180;7766;51.534;6.722;2022-12-07T21:38:10;100636.47;;;5.98
15333;BMP180;7766;51.534;6.722;2022-12-07T21:39:11;100640.56;;;6.01
15333;BMP180;7766;51.534;6.722;2022-12-07T21:40:12;100639.63;;;6.09